• Join FlightAware (Why Join?)
  • Login
  • US Flag GB Flag 
07:41 EDT


 

Airport Tracker/Info


-or-


 

Live Flight TrackerFlight Track Log ✈ SWA868 ✈ 02-May-2013 ✈ KTPA - KMHT

Flight Track Log - Related Links

Times and Time Zones

All times are in EDT time to prevent confusion due to time zone crossing. See the SWA868 flight status page for this flight to view local times or setup timezone preferences in your user account.

Time Position Orientation Groundspeed Altitude Reporting Facility
EDT Latitude Longitude Course Direction KTS MPH feet Rate Location/Type
21:21 28.0000 -82.5333 360° North 183 211 700  Level Tampa TRACON
21:22 28.0333 -82.5333 360° North 181 208 1,800 1,860 Climbing Tampa TRACON
21:23 28.0833 -82.5333 360° North 223 257 3,900 2,640 Climbing Tampa TRACON
21:26 28.3664 -82.5575 356° North 324 373 13,600 2,820 Climbing Jacksonville Center
21:27 28.4647 -82.5692 354° North 337 388 16,700 2,940 Climbing Jacksonville Center
21:28 28.5711 -82.5806 355° North 364 419 19,500 2,400 Climbing Jacksonville Center
21:29 28.6839 -82.5919 355° North 385 443 21,600 2,100 Climbing Jacksonville Center
21:30 28.8008 -82.6058 354° North 406 467 23,700 2,100 Climbing Jacksonville Center
21:31 28.9239 -82.6244 352° North 426 490 25,900 2,040 Climbing Jacksonville Center
21:32 29.0492 -82.6431 353° North 443 510 27,800 1,800 Climbing Jacksonville Center
21:33 29.1786 -82.6594 354° North 450 518 29,500 1,080 Climbing Jacksonville Center
21:34 29.3081 -82.6783 353° North 468 539 30,000 300 Climbing Jacksonville Center
21:35 29.4542 -82.6922 355° North 473 544 30,100 1,020 Climbing Jacksonville Center
21:36 29.5900 -82.6967 358° North 473 544 32,100 1,920 Climbing Jacksonville Center
21:37 29.7172 -82.6942 North 468 539 34,000 1,740 Climbing Jacksonville Center
21:38 29.8425 -82.6939 360° North 457 526 35,600 1,260 Climbing Jacksonville Center
21:39 29.9700 -82.6911 North 457 526 36,600 660 Climbing Jacksonville Center
21:40 30.1014 -82.6886 North 457 526 37,000 180 Climbing Jacksonville Center
21:41 30.2308 -82.6858 North 457 526 37,000  Level Jacksonville Center
21:42 30.3644 -82.6856 360° North 457 526 37,000  Level Jacksonville Center
21:43 30.4919 -82.6828 North 457 526 37,000  Level Jacksonville Center
21:44 30.6108 -82.6367 18° North 452 520 37,000  Level Jacksonville Center
21:45 30.7317 -82.5783 23° Northeast 452 520 37,000  Level Jacksonville Center
21:46 30.8506 -82.5222 22° Northeast 457 526 37,000  Level Jacksonville Center
21:47 30.9756 -82.4614 23° Northeast 467 537 37,000  Level Jacksonville Center
21:48 31.0967 -82.4025 23° Northeast 467 537 37,000  Level Jacksonville Center
21:49 31.2217 -82.3411 23° Northeast 473 544 37,000  Level Jacksonville Center
21:50 31.3467 -82.2819 22° Northeast 473 544 37,000  Level Jacksonville Center
21:51 31.4758 -82.2178 23° Northeast 486 559 37,000  Level Jacksonville Center
21:52 31.6028 -82.1558 23° Northeast 491 565 37,000  Level Jacksonville Center
21:53 31.7278 -82.0914 24° Northeast 486 559 37,000 480 Level Jacksonville Center
21:54 31.8400 -82.0342 23° Northeast 486 559 38,000 960 Climbing Jacksonville Center
21:55 31.9814 -81.9642 23° Northeast 494 568 39,000 480 Climbing Jacksonville Center
21:56 32.1083 -81.9067 21° North 489 563 39,000  Level Jacksonville Center
21:57 32.2250 -81.8514 22° Northeast 489 563 39,000  Level Jacksonville Center
21:58 32.3622 -81.7883 21° North 489 563 39,000  Level Jacksonville Center
21:59 32.4889 -81.7250 23° Northeast 489 563 39,000  Level Jacksonville Center
22:00 32.5947 -81.6597 27° Northeast 478 550 39,000  Level Jacksonville Center
22:01 32.7044 -81.5692 35° Northeast 473 544 39,000  Level Jacksonville Center
22:02 32.8142 -81.4836 33° Northeast 473 544 39,000  Level Jacksonville Center
22:03 32.9281 -81.4003 32° Northeast 473 544 39,000  Level Jacksonville Center
22:04 33.0397 -81.3117 34° Northeast 479 551 39,000  Level Jacksonville Center
22:05 33.1533 -81.2203 34° Northeast 479 551 39,000  Level Jacksonville Center
22:06 33.2650 -81.1364 32° Northeast 479 551 39,000  Level Jacksonville Center
22:07 33.3783 -81.0469 33° Northeast 479 551 39,000  Level Jacksonville Center
22:08 33.4919 -80.9575 33° Northeast 479 551 39,000  Level Jacksonville Center
22:09 33.6133 -80.8600 34° Northeast 479 551 39,000  Level Jacksonville Center
22:10 33.7267 -80.7725 33° Northeast 479 551 39,000  Level Jacksonville Center
22:11 33.8400 -80.6847 33° Northeast 479 551 39,000  Level Jacksonville Center
22:12 33.9511 -80.5919 35° Northeast 479 551 39,000  Level Jacksonville Center
22:13 34.0642 -80.5011 34° Northeast 479 551 39,000  Level Jacksonville Center
22:14 34.1750 -80.4128 33° Northeast 479 551 39,000  Level Jacksonville Center
22:15 34.2858 -80.3217 34° Northeast 479 551 39,000  Level Jacksonville Center
22:17 34.4961 -80.1478 34° Northeast 480 552 39,000  Level Washington Center
22:18 34.6058 -80.0581 34° Northeast 480 552 39,000  Level Washington Center
22:19 34.7283 -79.9611 33° Northeast 480 552 39,000  Level Washington Center
22:20 34.8336 -79.8758 34° Northeast 480 552 39,000  Level Washington Center
22:21 34.9392 -79.7878 34° Northeast 468 539 39,000  Level Washington Center
22:22 35.0464 -79.6994 34° Northeast 462 532 39,000  Level Washington Center
22:23 35.1517 -79.6108 35° Northeast 457 526 39,000  Level Washington Center
22:24 35.2469 -79.5061 42° Northeast 462 532 39,000  Level Washington Center
22:25 35.3444 -79.3989 42° Northeast 462 532 39,000  Level Washington Center
22:26 35.4308 -79.3011 43° Northeast 462 532 39,000  Level Washington Center
22:27 35.5239 -79.1931 43° Northeast 457 526 39,000  Level Washington Center
22:28 35.6256 -79.0750 43° Northeast 457 526 39,000  Level Washington Center
22:29 35.7203 -78.9667 43° Northeast 457 526 39,000  Level Washington Center
22:30 35.8175 -78.8553 43° Northeast 457 526 39,000  Level Washington Center
22:31 35.9142 -78.7517 41° Northeast 462 532 39,000  Level Washington Center
22:32 36.0208 -78.6583 35° Northeast 462 532 39,000  Level Washington Center
22:33 36.1253 -78.5672 35° Northeast 462 532 39,000  Level Washington Center
22:34 36.2150 -78.4858 36° Northeast 457 526 39,000  Level Washington Center
22:35 36.3194 -78.3942 35° Northeast 452 520 39,000  Level Washington Center
22:36 36.4217 -78.3050 35° Northeast 452 520 39,000  Level Washington Center
22:37 36.5258 -78.2128 35° Northeast 457 526 39,000  Level Washington Center
22:38 36.6217 -78.1203 38° Northeast 450 518 39,000  Level Washington Center
22:39 36.7239 -78.0303 35° Northeast 443 510 39,000  Level Washington Center
22:40 36.8258 -77.9403 35° Northeast 443 510 39,000  Level Washington Center
22:41 36.9094 -77.8233 48° Northeast 438 504 39,000  Level Washington Center
22:42 36.9825 -77.6981 54° Northeast 443 510 39,000  Level Washington Center
22:43 37.0578 -77.5750 53° Northeast 443 510 39,000  Level Washington Center
22:44 37.1306 -77.4492 54° Northeast 443 510 39,000  Level Washington Center
22:45 37.2094 -77.3286 51° Northeast 448 516 39,000  Level Washington Center
22:46 37.3089 -77.2394 35° Northeast 429 494 39,000  Level Washington Center
22:47 37.4186 -77.1400 36° Northeast 435 501 39,000  Level Washington Center
22:48 37.5114 -77.0658 32° Northeast 440 506 39,000  Level Washington Center
22:49 37.6147 -76.9786 34° Northeast 445 512 39,000  Level Washington Center
22:50 37.7117 -76.8911 36° Northeast 445 512 39,000  Level Washington Center
22:51 37.8125 -76.8036 34° Northeast 439 505 39,000  Level Washington Center
22:52 37.9136 -76.7156 34° Northeast 439 505 39,000  Level Washington Center
22:53 38.0122 -76.6275 35° Northeast 434 499 39,000  Level Washington Center
22:54 38.1131 -76.5419 34° Northeast 434 499 39,000  Level Washington Center
22:55 38.2119 -76.4506 36° Northeast 434 499 39,000  Level Washington Center
22:56 38.3208 -76.3567 34° Northeast 434 499 39,000  Level Washington Center
22:57 38.4089 -76.2781 35° Northeast 427 491 39,000  Level Washington Center
22:58 38.5053 -76.1886 36° Northeast 427 491 39,000  Level Washington Center
22:59 38.6078 -76.1017 34° Northeast 435 501 39,000  Level Washington Center
23:00 38.7061 -76.0172 34° Northeast 435 501 39,000  Level Washington Center
23:01 38.8003 -75.9272 37° Northeast 429 494 39,000  Level Washington Center
23:02 38.8964 -75.8450 34° Northeast 424 488 39,000  Level Washington Center
23:03 38.9944 -75.7572 35° Northeast 424 488 39,000  Level Washington Center
23:04 39.0906 -75.6692 35° Northeast 424 488 39,000  Level Washington Center
23:05 39.1864 -75.5808 36° Northeast 424 488 39,000  Level Washington Center
23:06 39.2842 -75.5006 32° Northeast 424 488 39,000  Level Washington Center
23:07 39.3906 -75.4358 25° Northeast 416 479 39,000  Level Washington Center
23:08 39.4967 -75.3736 24° Northeast 411 473 39,000  Level Washington Center
23:09 39.6028 -75.3086 25° Northeast 411 473 39,000  Level Washington Center
23:10 39.7089 -75.2464 24° Northeast 417 480 39,000  Level Washington Center
23:11 39.8150 -75.1836 24° Northeast 417 480 39,000  Level Washington Center
23:12 39.9333 -75.1097 26° Northeast 422 486 39,000  Level Washington Center
23:13 39.9956 -75.0708 26° Northeast 441 507 39,000  Level New York Center
23:14 40.0808 -75.0167 26° Northeast 447 514 39,000  Level New York Center
23:15 40.2044 -74.9397 25° Northeast 420 483 39,000  Level New York Center
23:16 40.3108 -74.8836 22° Northeast 410 472 39,000  Level New York Center
23:17 40.4186 -74.8356 19° North 405 466 39,000  Level New York Center
23:18 40.5286 -74.7903 17° North 405 466 39,000  Level New York Center
23:19 40.6808 -74.7197 19° North 404 465 39,000  Level Boston Center
23:20 40.8133 -74.6642 18° North 409 471 39,000  Level Boston Center
23:21 40.9206 -74.6183 18° North 409 471 39,000  Level Boston Center
23:22 41.0150 -74.5803 17° North 404 465 39,000  Level Boston Center
23:23 41.1242 -74.5317 19° North 404 465 39,000  Level Boston Center
23:24 41.2314 -74.4853 18° North 404 465 39,000  Level Boston Center
23:25 41.3447 -74.4392 17° North 409 471 39,000  Level Boston Center
23:26 41.4500 -74.3872 20° North 409 471 39,000  Level Boston Center
23:27 41.5592 -74.3433 17° North 404 465 39,000 -420 Level Boston Center
23:28 41.6661 -74.2936 19° North 404 465 38,200 -1,140 Descending Boston Center
23:29 41.7733 -74.2467 18° North 404 465 36,800 -1,800 Descending Boston Center
23:30 41.8908 -74.1969 17° North 404 465 34,700 -1,800 Descending Boston Center
23:31 41.9789 -74.1603 17° North 409 471 33,200 -1,980 Descending Boston Center
23:32 42.1089 -74.0994 19° North 409 471 30,800 -2,340 Descending Boston Center
23:33 42.2181 -74.0492 19° North 409 471 28,600 -2,160 Descending Boston Center
23:34 42.3169 -73.9844 26° Northeast 404 465 26,500 -1,800 Descending Boston Center
23:35 42.3994 -73.8908 40° Northeast 392 451 25,000 -780 Descending Boston Center
23:36 42.4797 -73.7969 41° Northeast 382 440 25,000 -540 Level Boston Center
23:37 42.5189 -73.6656 68° East 369 425 24,000 -540 Descending Boston Center
23:38 42.5472 -73.5281 74° East 364 419 24,000  Level Boston Center
23:39 42.5756 -73.3903 74° East 370 426 24,000  Level Boston Center
23:40 42.6058 -73.2497 74° East 399 459 24,000  Level Boston Center
23:41 42.6317 -73.1258 74° East 385 443 24,000 -120 Level Boston Center
23:42 42.6575 -72.9794 76° East 380 437 23,800 -1,020 Descending Boston Center
23:43 42.6853 -72.8411 75° East 385 443 22,000 -1,800 Descending Boston Center
23:44 42.7106 -72.7228 74° East 356 410 20,200 -1,740 Descending Boston Center
23:45 42.7358 -72.6042 74° East 338 389 18,600 -1,560 Descending Boston Center
23:46 42.7567 -72.4881 76° East 319 367 17,100 -1,800 Descending Boston Center
23:47 42.7775 -72.3778 76° East 308 354 15,100 -2,040 Descending Boston Center
23:48 42.7961 -72.2619 78° East 308 354 13,100 -2,100 Descending Boston Center
23:49 42.8064 -72.1344 84° East 308 354 11,000 -1,500 Descending Boston Center
23:50 42.8144 -72.0297 84° East 308 354 10,200 -960 Descending Boston Center
23:51 42.8222 -71.9192 84° East 286 329 9,100 -1,380 Descending Boston Center
23:52 42.8175 -71.8203 94° East 260 299 7,500 -1,500 Descending Boston Center
23:53 42.8233 -71.7294 85° East 248 285 6,200 -1,560 Descending Boston Center
23:54 42.7997 -71.6450 111° Southeast 236 272 4,400 -1,260 Descending Boston Center
23:55 42.8222 -71.5794 65° Northeast 183 211 3,700 -1,200 Descending Boston Center
23:56 42.8575 -71.5394 40° Northeast 164 189 2,100 -1,200 Descending Boston Center
23:57 42.8883 -71.4992 44° Northeast 151 174 1,400 -780 Descending Boston Center
23:58 42.9153 -71.4650 43° Northeast 133 153 600 3,780 Descending Boston Center
23:59 42.9378 -71.4389 40° Northeast 133 153 9,000 4,200 Climbing Boston Center
00:00 42.9647 -71.4103 38° Northeast 133 153 9,000  Level Boston Center
00:01 42.9894 -71.3814 41° Northeast 133 153 9,000  Level Boston Center
00:02 43.0164 -71.3525 38° Northeast 133 153 9,000  Level Boston Center
00:04 42.9328 -71.4358 216° Southwest  Level Estimated
00:11 42.9328 -71.4358 180° South  Level Estimated
00:12 42.9328 -71.4358 180° South  Level Estimated
00:13 42.9328 -71.4358 180° South  Level Estimated
00:14 42.9328 -71.4358 180° South  Level Estimated
00:15 42.9328 -71.4358 180° South  Level Estimated